createdAt,value
2017-08-16T00:00:31.655Z,66.46
2017-08-16T00:01:12.239Z,66.56
2017-08-16T00:01:52.822Z,66.46
2017-08-16T00:02:33.395Z,67.04
2017-08-16T00:03:13.972Z,66.85
2017-08-16T00:03:54.557Z,66.85
2017-08-16T00:04:35.122Z,66.56
2017-08-16T00:05:15.703Z,66.27
2017-08-16T00:05:56.289Z,66.56
2017-08-16T00:06:36.859Z,66.94
2017-08-16T00:07:17.439Z,66.56
2017-08-16T00:07:58.005Z,67.04
2017-08-16T00:08:38.569Z,67.04
2017-08-16T00:09:19.145Z,67.23
2017-08-16T00:09:59.731Z,67.14
2017-08-16T00:10:40.304Z,67.23
2017-08-16T00:11:20.889Z,67.33
2017-08-16T00:12:01.487Z,67.33
2017-08-16T00:12:42.062Z,67.14
2017-08-16T00:13:22.648Z,66.94
2017-08-16T00:14:03.238Z,67.23
2017-08-16T00:14:43.809Z,66.94
2017-08-16T00:15:24.391Z,67.23
2017-08-16T00:16:04.961Z,67.52
2017-08-16T00:16:45.541Z,67.62
2017-08-16T00:17:26.128Z,67.81
2017-08-16T00:18:06.705Z,67.62
2017-08-16T00:18:47.283Z,67.81
2017-08-16T00:19:27.864Z,67.71
2017-08-16T00:20:08.451Z,67.81
2017-08-16T00:20:49.031Z,67.62
2017-08-16T00:21:29.586Z,67.91
2017-08-16T00:22:10.165Z,67.33
2017-08-16T00:22:50.737Z,67.33
2017-08-16T00:23:31.308Z,67.52
2017-08-16T00:24:11.879Z,67.4
2017-08-16T00:24:52.448Z,67.81
2017-08-16T00:25:33.056Z,67.81
2017-08-16T00:26:20.236Z,67.71
2017-08-16T00:27:00.824Z,67.71
2017-08-16T00:27:41.397Z,67.81
2017-08-16T00:28:21.975Z,67.52
2017-08-16T00:29:02.566Z,67.88
2017-08-16T00:29:43.148Z,68.01
2017-08-16T00:30:23.712Z,68.01
2017-08-16T00:31:04.299Z,68.1
2017-08-16T00:31:44.884Z,68.19
2017-08-16T00:32:25.454Z,67.81
2017-08-16T00:33:06.037Z,68.01
2017-08-16T00:33:46.635Z,68.01
2017-08-16T00:34:27.202Z,68.1
2017-08-16T00:35:07.790Z,67.81
2017-08-16T00:35:48.354Z,67.78
2017-08-16T00:36:28.927Z,67.81
2017-08-16T00:37:09.488Z,67.81
2017-08-16T00:37:50.064Z,68.19
2017-08-16T00:38:30.645Z,67.81
2017-08-16T00:39:11.242Z,68.01
2017-08-16T00:39:51.809Z,68.29
2017-08-16T00:40:32.411Z,68.26
2017-08-16T00:41:12.986Z,68.39
2017-08-16T00:41:53.558Z,68.39
2017-08-16T00:42:34.144Z,68.19
2017-08-16T00:43:14.715Z,68.1
2017-08-16T00:43:55.295Z,67.97
2017-08-16T00:44:35.875Z,68.39
2017-08-16T00:45:16.441Z,68.35
2017-08-16T00:45:57.011Z,68.59
2017-08-16T00:46:37.592Z,68.45
2017-08-16T00:47:18.161Z,68.39
2017-08-16T00:47:58.734Z,68.1
2017-08-16T00:48:39.299Z,68.16
2017-08-16T00:49:19.871Z,67.97
2017-08-16T00:50:00.445Z,68.55
2017-08-16T00:50:41.018Z,68.65
2017-08-16T00:51:21.601Z,68.84
2017-08-16T00:52:02.176Z,68.65
2017-08-16T00:52:42.741Z,68.77
2017-08-16T00:53:23.305Z,68.65
2017-08-16T00:54:03.870Z,68.68
2017-08-16T00:54:44.447Z,69.32
2017-08-16T00:55:25.031Z,69.13
2017-08-16T00:56:05.594Z,68.77
2017-08-16T00:56:46.165Z,68.65
2017-08-16T00:57:26.754Z,69.32
2017-08-16T00:58:07.332Z,68.84
2017-08-16T00:58:47.922Z,69.13
2017-08-16T00:59:28.487Z,68.84
2017-08-16T01:00:09.065Z,68.93
2017-08-16T01:00:49.661Z,68.68
2017-08-16T01:01:30.212Z,69.42
2017-08-16T01:02:10.797Z,68.74
2017-08-16T01:02:51.367Z,68.74
2017-08-16T01:03:31.939Z,68.74
2017-08-16T01:04:12.514Z,68.74
2017-08-16T01:04:53.107Z,68.74
2017-08-16T01:05:33.673Z,68.45
2017-08-16T01:06:14.250Z,68.49
2017-08-16T01:06:54.819Z,68.26
2017-08-16T01:07:35.407Z,68.77
2017-08-16T01:08:15.986Z,69.23
2017-08-16T01:08:56.571Z,68.74
2017-08-16T01:09:37.152Z,68.45
2017-08-16T01:10:17.714Z,68.45
2017-08-16T01:10:58.288Z,68.26
2017-08-16T01:11:38.863Z,68.45
2017-08-16T01:12:19.429Z,68.74
2017-08-16T01:13:00.020Z,69.23
2017-08-16T01:13:40.592Z,68.84
2017-08-16T01:14:21.173Z,69.32
2017-08-16T01:15:01.762Z,69.23
2017-08-16T01:15:42.349Z,69.03
2017-08-16T01:16:22.918Z,69.8
2017-08-16T01:17:03.496Z,69.23
2017-08-16T01:17:44.069Z,69.51
2017-08-16T01:18:24.634Z,69.8
2017-08-16T01:19:05.208Z,69.71
2017-08-16T01:19:45.800Z,69.61
2017-08-16T01:20:26.371Z,69.61
2017-08-16T01:21:06.955Z,69.23
2017-08-16T01:21:47.557Z,69.51
2017-08-16T01:22:28.144Z,69.23
2017-08-16T01:23:08.724Z,69.42
2017-08-16T01:23:49.302Z,69.42
2017-08-16T01:24:29.878Z,69.42
2017-08-16T01:25:10.485Z,69.23
2017-08-16T01:25:51.029Z,69.51
2017-08-16T01:26:31.601Z,69.42
2017-08-16T01:27:12.191Z,69.03
2017-08-16T01:27:52.757Z,69.61
2017-08-16T01:28:33.327Z,69.8
2017-08-16T01:29:13.904Z,69.71
2017-08-16T01:29:54.474Z,69.61
2017-08-16T01:30:35.042Z,69.51
2017-08-16T01:31:15.610Z,69.71
2017-08-16T01:31:56.185Z,70
2017-08-16T01:32:36.769Z,70.19
2017-08-16T01:33:17.347Z,69.9
2017-08-16T01:33:57.931Z,70
2017-08-16T01:34:38.499Z,70.19
2017-08-16T01:35:19.066Z,70.28
2017-08-16T01:35:59.630Z,69.71
2017-08-16T01:36:40.212Z,70
2017-08-16T01:37:20.820Z,69.9
2017-08-16T01:38:01.391Z,70.38
2017-08-16T01:38:41.965Z,70.38
2017-08-16T01:39:22.537Z,70.19
2017-08-16T01:40:03.110Z,69.9
2017-08-16T01:40:43.685Z,69.9
2017-08-16T01:41:24.265Z,69.8
2017-08-16T01:42:04.840Z,70.38
2017-08-16T01:42:45.433Z,70.28
2017-08-16T01:43:26.012Z,70.19
2017-08-16T01:44:06.601Z,70.38
2017-08-16T01:44:47.171Z,70.28
2017-08-16T01:45:27.762Z,70.76
2017-08-16T01:46:08.325Z,70.67
2017-08-16T01:46:48.905Z,70.76
2017-08-16T01:47:29.495Z,70.48
2017-08-16T01:48:10.081Z,70.48
2017-08-16T01:48:50.665Z,70.28
2017-08-16T01:49:31.232Z,70.38
2017-08-16T01:50:11.805Z,70.57
2017-08-16T01:50:52.388Z,70.38
2017-08-16T01:51:32.952Z,71.15
2017-08-16T01:52:13.556Z,70.96
2017-08-16T01:52:54.143Z,70.96
2017-08-16T01:53:34.721Z,71.15
2017-08-16T01:54:15.329Z,71.06
2017-08-16T01:54:55.910Z,70.86
2017-08-16T01:55:36.504Z,70.86
2017-08-16T01:56:17.076Z,71.06
2017-08-16T01:56:57.670Z,71.25
2017-08-16T01:57:38.243Z,70.76
2017-08-16T01:58:18.834Z,71.44
2017-08-16T01:58:59.417Z,71.54
2017-08-16T01:59:39.980Z,71.06
2017-08-16T02:00:20.566Z,71.06
2017-08-16T02:01:01.127Z,71.06
2017-08-16T02:01:41.723Z,71.06
2017-08-16T02:02:22.319Z,71.6
2017-08-16T02:03:02.896Z,71.54
2017-08-16T02:03:43.482Z,71.73
2017-08-16T02:04:24.059Z,71.34
2017-08-16T02:05:04.639Z,71.92
2017-08-16T02:05:45.211Z,71.73
2017-08-16T02:06:25.784Z,71.34
2017-08-16T02:07:06.344Z,71.44
2017-08-16T02:07:46.912Z,71.44
2017-08-16T02:08:27.493Z,71.25
2017-08-16T02:09:08.076Z,71.41
2017-08-16T02:09:48.650Z,71.92
2017-08-16T02:10:29.244Z,71.5
2017-08-16T02:11:09.816Z,71.6
2017-08-16T02:11:50.409Z,71.64
2017-08-16T02:12:30.982Z,71.54
2017-08-16T02:13:11.548Z,71.64
2017-08-16T02:13:52.125Z,72.02
2017-08-16T02:14:32.699Z,71.83
2017-08-16T02:15:13.268Z,71.92
2017-08-16T02:15:53.859Z,72.12
2017-08-16T02:16:34.436Z,72.12
2017-08-16T02:17:15.009Z,72.12
2017-08-16T02:17:55.580Z,72.18
2017-08-16T02:18:36.154Z,72.47
2017-08-16T02:19:16.746Z,72.31
2017-08-16T02:19:57.343Z,72.31
2017-08-16T02:20:37.935Z,72.6
2017-08-16T02:21:18.518Z,72.5
2017-08-16T02:21:59.093Z,72.5
2017-08-16T02:22:39.672Z,72.56
2017-08-16T02:23:20.241Z,72.41
2017-08-16T02:24:00.820Z,72.31
2017-08-16T02:24:41.393Z,72.12
2017-08-16T02:25:21.969Z,72.37
2017-08-16T02:26:02.554Z,72.5
2017-08-16T02:26:43.135Z,72.47
2017-08-16T02:27:23.711Z,72.6
2017-08-16T02:28:04.278Z,72.31
2017-08-16T02:28:44.839Z,72.5
2017-08-16T02:29:25.427Z,72.5
2017-08-16T02:30:05.989Z,72.41
2017-08-16T02:30:46.563Z,72.31
2017-08-16T02:31:27.121Z,72.41
2017-08-16T02:32:07.700Z,72.66
2017-08-16T02:32:48.264Z,72.47
2017-08-16T02:33:28.863Z,72.6
2017-08-16T02:34:09.438Z,72.85
2017-08-16T02:34:50.020Z,72.95
2017-08-16T02:35:30.592Z,72.99
2017-08-16T02:36:11.167Z,72.47
2017-08-16T02:36:51.744Z,72.95
2017-08-16T02:37:32.335Z,72.75
2017-08-16T02:38:12.904Z,72.85
2017-08-16T02:38:53.478Z,72.99
2017-08-16T02:39:34.050Z,73.05
2017-08-16T02:40:14.650Z,72.66
2017-08-16T02:40:55.224Z,72.75
2017-08-16T02:41:35.799Z,73.05
2017-08-16T02:42:16.392Z,73.82
2017-08-16T02:42:56.973Z,73.24
2017-08-16T02:43:37.560Z,73.33
2017-08-16T02:44:18.133Z,73.14
2017-08-16T02:44:58.708Z,73.33
2017-08-16T02:45:39.290Z,73.72
2017-08-16T02:46:19.869Z,73.43
2017-08-16T02:47:00.440Z,73.14
2017-08-16T02:47:41.034Z,73.53
2017-08-16T02:48:21.632Z,73.72
2017-08-16T02:49:02.214Z,73.82
2017-08-16T02:49:42.810Z,73.62
2017-08-16T02:50:23.375Z,73.62
2017-08-16T02:51:03.959Z,74.2
2017-08-16T02:51:44.534Z,74.4
2017-08-16T02:52:25.108Z,74.3
2017-08-16T02:53:05.703Z,74.49
2017-08-16T02:53:46.280Z,74.49
2017-08-16T02:54:26.840Z,74.3
2017-08-16T02:55:07.419Z,74.88
2017-08-16T02:55:47.977Z,74.68
2017-08-16T02:56:28.566Z,74.88
2017-08-16T02:57:09.124Z,74.68
2017-08-16T02:57:49.710Z,74.68
2017-08-16T02:58:30.274Z,74.49
2017-08-16T02:59:10.852Z,74.78
2017-08-16T02:59:51.432Z,74.68
2017-08-16T03:00:32.031Z,74.68
2017-08-16T03:01:12.595Z,74.3
2017-08-16T03:01:53.172Z,74.97
2017-08-16T03:02:33.742Z,74.88
2017-08-16T03:03:14.323Z,74.78
2017-08-16T03:03:54.902Z,75.07
2017-08-16T03:04:35.484Z,75.16
2017-08-16T03:05:16.059Z,75.16
2017-08-16T03:05:56.715Z,74.68
2017-08-16T03:06:37.304Z,75.26
2017-08-16T03:07:17.877Z,75.07
2017-08-16T03:07:58.474Z,75.36
2017-08-16T03:08:39.104Z,75.16
2017-08-16T03:09:19.682Z,75.45
2017-08-16T03:10:00.276Z,75.55
2017-08-16T03:10:40.846Z,75.74
2017-08-16T03:11:21.416Z,75.55
2017-08-16T03:12:02.007Z,75.45
2017-08-16T03:12:42.611Z,75.45
2017-08-16T03:13:23.183Z,75.74
2017-08-16T03:14:03.763Z,75.74
2017-08-16T03:14:44.330Z,75.65
2017-08-16T03:15:24.916Z,75.65
2017-08-16T03:16:05.491Z,75.93
2017-08-16T03:16:46.074Z,76.03
2017-08-16T03:17:26.668Z,76.13
2017-08-16T03:18:07.263Z,76.13
2017-08-16T03:18:47.872Z,75.93
2017-08-16T03:19:28.472Z,76.51
2017-08-16T03:20:09.051Z,76.13
2017-08-16T03:20:49.622Z,76.42
2017-08-16T03:21:30.189Z,76.13
2017-08-16T03:22:10.765Z,76.9
2017-08-16T03:22:51.376Z,76.8
2017-08-16T03:23:31.968Z,76.51
2017-08-16T03:24:12.534Z,76.61
2017-08-16T03:24:53.123Z,76.42
2017-08-16T03:25:33.702Z,76.8
2017-08-16T03:26:14.291Z,77.09
2017-08-16T03:26:54.857Z,77
2017-08-16T03:27:35.434Z,77.09
2017-08-16T03:28:16.006Z,77.09
2017-08-16T03:28:56.616Z,76.61
2017-08-16T03:29:37.186Z,77.38
2017-08-16T03:30:17.758Z,77.58
2017-08-16T03:30:58.385Z,77.63
2017-08-16T03:31:38.973Z,77.67
2017-08-16T03:32:19.564Z,77.73
2017-08-16T03:33:00.146Z,77.92
2017-08-16T03:33:40.727Z,77.76
2017-08-16T03:34:21.290Z,77.96
2017-08-16T03:35:01.897Z,77.58
2017-08-16T03:35:42.483Z,78.06
2017-08-16T03:36:23.088Z,77.96
2017-08-16T03:37:03.655Z,77.86
2017-08-16T03:37:44.224Z,77.67
2017-08-16T03:38:24.793Z,78.34
2017-08-16T03:39:05.371Z,78.11
2017-08-16T03:39:45.948Z,78.02
2017-08-16T03:40:26.522Z,78.06
2017-08-16T03:41:07.105Z,77.63
2017-08-16T03:41:47.693Z,77.73
2017-08-16T03:42:28.284Z,78.34
2017-08-16T03:43:08.861Z,78.06
2017-08-16T03:43:49.432Z,78.25
2017-08-16T03:44:29.999Z,78.54
2017-08-16T03:45:10.568Z,78.02
2017-08-16T03:45:51.179Z,78.15
2017-08-16T03:46:31.762Z,78.25
2017-08-16T03:47:12.361Z,78.98
2017-08-16T03:47:52.944Z,78.69
2017-08-16T03:48:33.515Z,78.69
2017-08-16T03:49:14.094Z,78.69
2017-08-16T03:49:54.675Z,78.31
2017-08-16T03:50:35.259Z,78.92
2017-08-16T03:51:15.848Z,79.21
2017-08-16T03:51:56.433Z,78.79
2017-08-16T03:52:37.001Z,78.98
2017-08-16T03:53:17.568Z,78.88
2017-08-16T03:53:58.130Z,79.08
2017-08-16T03:54:38.710Z,78.79
2017-08-16T03:55:19.287Z,79.08
2017-08-16T03:55:59.857Z,79.08
2017-08-16T03:56:40.436Z,78.59
2017-08-16T03:57:21.027Z,78.88
2017-08-16T03:58:01.584Z,78.79
2017-08-16T03:58:42.176Z,78.69
2017-08-16T03:59:22.793Z,78.98
2017-08-16T04:00:03.378Z,78.92
2017-08-16T04:00:43.963Z,78.69
2017-08-16T04:01:24.568Z,78.69
2017-08-16T04:02:05.146Z,79.27
2017-08-16T04:02:45.730Z,79.17
2017-08-16T04:03:26.313Z,79.17
2017-08-16T04:04:06.902Z,79.17
2017-08-16T04:04:47.479Z,79.17
2017-08-16T04:05:28.059Z,79.75
2017-08-16T04:06:08.646Z,79.6
2017-08-16T04:06:49.247Z,79.31
2017-08-16T04:07:29.833Z,79.56
2017-08-16T04:08:10.403Z,79.36
2017-08-16T04:08:50.990Z,79.46
2017-08-16T04:09:31.567Z,79.36
2017-08-16T04:10:12.164Z,79.56
2017-08-16T04:10:52.747Z,79.46
2017-08-16T04:11:33.322Z,79.46
2017-08-16T04:12:13.912Z,79.46
2017-08-16T04:12:54.487Z,79.36
2017-08-16T04:13:35.067Z,79.46
2017-08-16T04:14:15.649Z,79.36
2017-08-16T04:14:56.259Z,79.56
2017-08-16T04:15:36.835Z,79.66
2017-08-16T04:16:17.394Z,79.56
2017-08-16T04:16:57.970Z,79.36
2017-08-16T04:17:38.565Z,79.94
2017-08-16T04:18:19.143Z,79.94
2017-08-16T04:18:59.719Z,79.94
2017-08-16T04:19:40.321Z,80.23
2017-08-16T04:20:20.902Z,79.94
2017-08-16T04:21:01.475Z,79.94
2017-08-16T04:21:42.090Z,79.75
2017-08-16T04:22:22.658Z,79.66
2017-08-16T04:23:03.229Z,79.94
2017-08-16T04:23:43.820Z,80.04
2017-08-16T04:24:24.404Z,80.23
2017-08-16T04:25:04.996Z,79.79
2017-08-16T04:25:45.568Z,79.46
2017-08-16T04:26:26.153Z,79.66
2017-08-16T04:27:06.793Z,79.66
2017-08-16T04:27:47.336Z,79.56
2017-08-16T04:28:27.901Z,79.46
2017-08-16T04:29:08.485Z,79.69
2017-08-16T04:29:49.063Z,79.36
2017-08-16T04:30:29.645Z,79.66
2017-08-16T04:31:10.231Z,79.46
2017-08-16T04:31:50.797Z,79.69
2017-08-16T04:32:31.367Z,79.6
2017-08-16T04:33:11.944Z,79.36
2017-08-16T04:33:52.519Z,79.66
2017-08-16T04:34:33.097Z,80.14
2017-08-16T04:35:13.679Z,80.14
2017-08-16T04:35:54.262Z,79.94
2017-08-16T04:36:34.862Z,79.66
2017-08-16T04:37:15.463Z,79.46
2017-08-16T04:37:56.056Z,79.75
2017-08-16T04:38:36.652Z,79.56
2017-08-16T04:39:17.233Z,79.66
2017-08-16T04:39:57.792Z,79.85
2017-08-16T04:40:38.367Z,79.66
2017-08-16T04:41:18.932Z,79.56
2017-08-16T04:41:59.519Z,79.36
2017-08-16T04:42:40.088Z,79.46
2017-08-16T04:43:20.678Z,79.66
2017-08-16T04:44:01.223Z,79.85
2017-08-16T04:44:41.811Z,79.85
2017-08-16T04:45:22.367Z,79.94
2017-08-16T04:46:02.984Z,80.04
2017-08-16T04:46:43.574Z,79.56
2017-08-16T04:47:24.185Z,79.36
2017-08-16T04:48:04.776Z,79.94
2017-08-16T04:48:45.360Z,80.14
2017-08-16T04:49:25.938Z,80.14
2017-08-16T04:50:06.514Z,80.14
2017-08-16T04:50:47.096Z,79.27
2017-08-16T04:51:27.667Z,79.46
2017-08-16T04:52:08.285Z,80.04
2017-08-16T04:52:48.854Z,80.23
2017-08-16T04:53:29.416Z,80.23
2017-08-16T04:54:09.979Z,80.14
2017-08-16T04:54:50.546Z,79.75
2017-08-16T04:55:31.119Z,79.75
2017-08-16T04:56:11.696Z,80.23
2017-08-16T04:56:52.284Z,79.94
2017-08-16T04:57:32.862Z,80.23
2017-08-16T04:58:13.437Z,80.33
2017-08-16T04:58:54.038Z,80.04
2017-08-16T04:59:34.622Z,79.75
2017-08-16T05:00:15.184Z,80.14
2017-08-16T05:00:55.796Z,79.75
2017-08-16T05:01:36.362Z,79.85
2017-08-16T05:02:16.949Z,79.85
2017-08-16T05:02:57.533Z,80.04
2017-08-16T05:03:38.115Z,80.04
2017-08-16T05:04:18.709Z,79.75
2017-08-16T05:04:59.266Z,79.94
2017-08-16T05:05:39.855Z,79.94
2017-08-16T05:06:20.433Z,79.85
2017-08-16T05:07:00.999Z,80.04
2017-08-16T05:07:41.585Z,80.04
2017-08-16T05:08:22.151Z,79.94
2017-08-16T05:09:02.724Z,80.04
2017-08-16T05:09:43.315Z,80.04
2017-08-16T05:10:23.897Z,80.04
2017-08-16T05:11:04.477Z,79.85
2017-08-16T05:11:45.059Z,80.23
2017-08-16T05:12:25.650Z,79.94
2017-08-16T05:13:06.237Z,79.94
2017-08-16T05:13:46.815Z,79.85
2017-08-16T05:14:27.409Z,79.85
2017-08-16T05:15:07.987Z,79.85
2017-08-16T05:15:48.564Z,79.94
2017-08-16T05:16:29.132Z,79.94
2017-08-16T05:17:09.697Z,80.04
2017-08-16T05:17:50.279Z,80.14
2017-08-16T05:18:30.865Z,80.04
2017-08-16T05:19:11.447Z,80.04
2017-08-16T05:19:52.019Z,79.75
2017-08-16T05:20:32.604Z,80.33
2017-08-16T05:21:13.181Z,80.23
2017-08-16T05:21:53.743Z,79.94
2017-08-16T05:22:34.308Z,79.94
2017-08-16T05:23:14.881Z,80.14
2017-08-16T05:23:55.466Z,80.04
2017-08-16T05:24:36.046Z,80.14
2017-08-16T05:25:16.641Z,79.94
2017-08-16T05:25:57.189Z,80.14
2017-08-16T05:26:37.756Z,80.23
2017-08-16T05:27:18.328Z,80.23
2017-08-16T05:27:58.914Z,80.23
2017-08-16T05:28:39.498Z,80.23
2017-08-16T05:29:20.068Z,80.23
2017-08-16T05:30:00.665Z,80.52
2017-08-16T05:30:41.243Z,80.33
2017-08-16T05:31:21.815Z,80.23
2017-08-16T05:32:02.396Z,80.14
2017-08-16T05:32:42.969Z,80.14
2017-08-16T05:33:23.550Z,80.23
2017-08-16T05:34:04.133Z,80.71
2017-08-16T05:34:44.707Z,80.62
2017-08-16T05:35:25.289Z,80.43
2017-08-16T05:36:05.880Z,80.71
2017-08-16T05:36:46.455Z,80.71
2017-08-16T05:37:27.026Z,80.81
2017-08-16T05:38:07.608Z,80.62
2017-08-16T05:38:48.178Z,80.62
2017-08-16T05:39:28.764Z,80.81
2017-08-16T05:40:09.341Z,80.43
2017-08-16T05:40:49.910Z,80.62
2017-08-16T05:41:30.487Z,80.52
2017-08-16T05:42:11.055Z,80.81
2017-08-16T05:42:51.624Z,80.81
2017-08-16T05:43:32.221Z,80.81
2017-08-16T05:44:12.802Z,80.81
2017-08-16T05:44:54.256Z,80.52
2017-08-16T05:45:33.973Z,80.62
2017-08-16T05:46:14.573Z,80.91
2017-08-16T05:46:55.153Z,81.01
2017-08-16T05:47:35.724Z,80.62
2017-08-16T05:48:16.298Z,80.91
2017-08-16T05:48:56.859Z,81.39
2017-08-16T05:49:37.431Z,81.39
2017-08-16T05:50:18.042Z,81.1
2017-08-16T05:50:58.600Z,81.01
2017-08-16T05:51:39.169Z,81.01
2017-08-16T05:52:19.755Z,81.48
2017-08-16T05:53:00.332Z,81.01
2017-08-16T05:53:40.900Z,80.71
2017-08-16T05:54:21.475Z,80.43
2017-08-16T05:55:02.044Z,80.33
2017-08-16T05:55:42.635Z,80.62
2017-08-16T05:56:23.215Z,80.81
2017-08-16T05:57:03.803Z,80.81
2017-08-16T05:57:44.396Z,80.52
2017-08-16T05:58:24.967Z,80.52
2017-08-16T05:59:05.570Z,80.52
2017-08-16T05:59:46.141Z,80.43
2017-08-16T06:00:26.711Z,80.52
2017-08-16T06:01:07.288Z,81.2
2017-08-16T06:01:47.863Z,81.29
2017-08-16T06:02:28.451Z,80.81
2017-08-16T06:03:09.015Z,80.81
2017-08-16T06:03:49.598Z,80.71
2017-08-16T06:04:30.169Z,80.52
2017-08-16T06:05:10.758Z,80.91
2017-08-16T06:05:51.326Z,80.62
2017-08-16T06:06:31.917Z,80.62
2017-08-16T06:07:12.483Z,81.01
2017-08-16T06:07:53.062Z,81.2
2017-08-16T06:08:33.648Z,81.2
2017-08-16T06:09:14.222Z,80.52
2017-08-16T06:09:54.803Z,80.43
2017-08-16T06:10:35.390Z,81.2
2017-08-16T06:11:15.970Z,81.2
2017-08-16T06:11:56.543Z,81.1
2017-08-16T06:12:37.155Z,81.1
2017-08-16T06:13:17.719Z,81.1
2017-08-16T06:13:58.301Z,81.1
2017-08-16T06:14:38.875Z,81.2
2017-08-16T06:15:19.478Z,81.1
2017-08-16T06:16:00.058Z,81.39
2017-08-16T06:16:40.629Z,81.39
2017-08-16T06:17:21.222Z,81.48
2017-08-16T06:18:01.790Z,81.58
2017-08-16T06:18:42.363Z,81.48
2017-08-16T06:19:22.952Z,81.68
2017-08-16T06:20:03.521Z,81.58
2017-08-16T06:20:44.117Z,81.48
2017-08-16T06:21:24.717Z,81.48
2017-08-16T06:22:05.311Z,81.48
2017-08-16T06:22:45.889Z,81.39
2017-08-16T06:23:26.478Z,81.48
2017-08-16T06:24:07.064Z,81.29
2017-08-16T06:24:47.690Z,81.48
2017-08-16T06:25:28.242Z,81.1
2017-08-16T06:26:08.809Z,81.29
2017-08-16T06:26:49.368Z,81.29
2017-08-16T06:27:29.948Z,81.77
2017-08-16T06:28:10.536Z,81.2
2017-08-16T06:28:51.108Z,81.77
2017-08-16T06:29:31.696Z,81.29
2017-08-16T06:30:12.282Z,81.87
2017-08-16T06:30:52.894Z,82.06
2017-08-16T06:31:33.465Z,82.16
2017-08-16T06:32:14.037Z,82.26
2017-08-16T06:32:54.622Z,82.26
2017-08-16T06:33:35.206Z,82.35
2017-08-16T06:34:15.788Z,82.93
2017-08-16T06:34:56.362Z,82.54
2017-08-16T06:35:36.951Z,82.64
2017-08-16T06:36:17.515Z,82.74
2017-08-16T06:36:58.092Z,82.83
2017-08-16T06:37:38.674Z,82.93
2017-08-16T06:38:19.256Z,83.31
2017-08-16T06:38:59.836Z,83.22
2017-08-16T06:39:40.411Z,83.41
2017-08-16T06:40:20.990Z,83.31
2017-08-16T06:41:01.560Z,83.22
2017-08-16T06:41:42.144Z,83.31
2017-08-16T06:42:22.721Z,83.41
2017-08-16T06:43:03.295Z,83.51
2017-08-16T06:43:43.908Z,83.89
2017-08-16T06:44:24.531Z,83.89
2017-08-16T06:45:05.095Z,84.09
2017-08-16T06:45:45.674Z,83.99
2017-08-16T06:46:26.246Z,83.8
2017-08-16T06:47:06.820Z,84.09
2017-08-16T06:47:47.385Z,83.89
2017-08-16T06:48:27.969Z,84.18
2017-08-16T06:49:08.555Z,83.61
2017-08-16T06:49:49.129Z,83.51
2017-08-16T06:50:29.726Z,83.7
2017-08-16T06:51:10.293Z,83.41
2017-08-16T06:51:50.879Z,83.61
2017-08-16T06:52:31.476Z,84.09
2017-08-16T06:53:12.050Z,84.09
2017-08-16T06:53:52.644Z,84.47
2017-08-16T06:54:33.226Z,84.09
2017-08-16T06:55:13.797Z,84.28
2017-08-16T06:55:54.402Z,84.76
2017-08-16T06:56:34.983Z,84.47
2017-08-16T06:57:15.575Z,84.66
2017-08-16T06:57:56.151Z,84.76
2017-08-16T06:58:36.729Z,84.56
2017-08-16T06:59:17.295Z,85.05
2017-08-16T06:59:57.901Z,85.05
2017-08-16T07:00:38.507Z,85.05
2017-08-16T07:01:19.075Z,85.43
2017-08-16T07:01:59.656Z,85.53
2017-08-16T07:02:40.257Z,85.34
2017-08-16T07:03:20.817Z,85.72
2017-08-16T07:04:01.391Z,85.82
2017-08-16T07:04:41.965Z,85.63
2017-08-16T07:05:22.538Z,86.11
2017-08-16T07:06:03.105Z,85.82
2017-08-16T07:06:43.717Z,86.01
2017-08-16T07:07:24.293Z,85.82
2017-08-16T07:08:04.865Z,86.11
2017-08-16T07:08:45.464Z,86.3
2017-08-16T07:09:26.074Z,86.11
2017-08-16T07:10:06.668Z,86.01
2017-08-16T07:10:47.260Z,86.3
2017-08-16T07:11:27.845Z,86.78
2017-08-16T07:12:08.429Z,86.3
2017-08-16T07:12:49.010Z,86.11
2017-08-16T07:13:29.592Z,86.49
2017-08-16T07:14:10.174Z,86.59
2017-08-16T07:14:50.766Z,86.49
2017-08-16T07:15:31.319Z,86.21
2017-08-16T07:16:11.928Z,87.17
2017-08-16T07:16:52.515Z,87.17
2017-08-16T07:17:33.100Z,86.98
2017-08-16T07:18:13.674Z,86.88
2017-08-16T07:18:54.282Z,86.98
2017-08-16T07:19:34.849Z,87.07
2017-08-16T07:20:15.408Z,87.8
2017-08-16T07:20:55.986Z,87.65
2017-08-16T07:21:36.556Z,87.46
2017-08-16T07:22:17.130Z,87.65
2017-08-16T07:22:57.727Z,87.99
2017-08-16T07:23:38.322Z,87.8
2017-08-16T07:24:18.907Z,87.94
2017-08-16T07:24:59.499Z,88.18
2017-08-16T07:25:40.075Z,88.09
2017-08-16T07:26:20.663Z,88.18
2017-08-16T07:27:01.259Z,87.9
2017-08-16T07:27:41.841Z,88.38
2017-08-16T07:28:22.425Z,88.13
2017-08-16T07:29:03.004Z,87.94
2017-08-16T07:29:43.591Z,88.18
2017-08-16T07:30:24.191Z,88.09
2017-08-16T07:31:04.791Z,88.09
2017-08-16T07:31:45.379Z,88.47
2017-08-16T07:32:25.943Z,88.18
2017-08-16T07:33:06.510Z,88.28
2017-08-16T07:33:47.086Z,88.47
2017-08-16T07:34:27.667Z,88.57
2017-08-16T07:35:08.250Z,88.57
2017-08-16T07:35:48.816Z,88.85
2017-08-16T07:36:29.418Z,88.85
2017-08-16T07:37:09.992Z,88.57
2017-08-16T07:37:50.570Z,88.47
2017-08-16T07:38:31.157Z,88.47
2017-08-16T07:39:11.775Z,88.57
2017-08-16T07:39:52.333Z,88.47
2017-08-16T07:40:32.909Z,88.47
2017-08-16T07:41:13.467Z,88.47
2017-08-16T07:41:54.039Z,88.47
2017-08-16T07:42:34.609Z,88.47
2017-08-16T07:43:15.183Z,88.47
2017-08-16T07:43:55.770Z,88.18
2017-08-16T07:44:36.366Z,88.47
2017-08-16T07:45:16.964Z,88.28
2017-08-16T07:45:57.543Z,88.09
2017-08-16T07:46:38.100Z,88.57
2017-08-16T07:47:18.687Z,88.47
2017-08-16T07:47:59.276Z,88.47
2017-08-16T07:48:39.872Z,88.67
2017-08-16T07:49:20.467Z,88.47
2017-08-16T07:50:01.058Z,88.38
2017-08-16T07:50:41.660Z,88.95
2017-08-16T07:51:22.254Z,89.15
2017-08-16T07:52:02.849Z,89.24
2017-08-16T07:52:43.430Z,89.34
2017-08-16T07:53:24.029Z,88.95
2017-08-16T07:54:04.636Z,89.05
2017-08-16T07:54:45.248Z,88.95
2017-08-16T07:55:25.813Z,88.95
2017-08-16T07:56:06.397Z,89.15
2017-08-16T07:56:46.975Z,89.05
2017-08-16T07:57:27.547Z,88.76
2017-08-16T07:58:08.145Z,89.15
2017-08-16T07:58:48.721Z,89.34
2017-08-16T07:59:29.308Z,89.15
2017-08-16T08:00:09.885Z,89.34
2017-08-16T08:00:50.470Z,89.72
2017-08-16T08:01:31.071Z,89.43
2017-08-16T08:02:11.647Z,89.2
2017-08-16T08:02:52.216Z,90.11
2017-08-16T08:03:32.812Z,89.82
2017-08-16T08:04:13.388Z,90.3
2017-08-16T08:04:53.973Z,89.72
2017-08-16T08:05:34.567Z,89.58
2017-08-16T08:06:15.141Z,89.78
2017-08-16T08:06:55.714Z,90.45
2017-08-16T08:07:36.308Z,90.35
2017-08-16T08:08:16.879Z,90.45
2017-08-16T08:08:57.452Z,90.26
2017-08-16T08:09:38.033Z,90.45
2017-08-16T08:10:18.611Z,90.06
2017-08-16T08:10:59.183Z,90.26
2017-08-16T08:11:39.745Z,90.55
2017-08-16T08:12:20.314Z,90.64
2017-08-16T08:13:00.904Z,90.73
2017-08-16T08:13:41.482Z,90.93
2017-08-16T08:14:22.064Z,90.73
2017-08-16T08:15:02.663Z,91.22
2017-08-16T08:15:43.249Z,91.13
2017-08-16T08:16:23.830Z,91.22
2017-08-16T08:17:04.404Z,91.13
2017-08-16T08:17:44.995Z,91.22
2017-08-16T08:18:25.572Z,91.22
2017-08-16T08:19:06.151Z,90.93
2017-08-16T08:19:46.727Z,91.41
2017-08-16T08:20:27.293Z,91.31
2017-08-16T08:21:07.863Z,91.7
2017-08-16T08:21:48.453Z,91.31
2017-08-16T08:22:29.025Z,91.8
2017-08-16T08:23:09.591Z,91.6
2017-08-16T08:23:50.182Z,91.51
2017-08-16T08:24:30.748Z,91.41
2017-08-16T08:25:11.325Z,91.22
2017-08-16T08:25:51.901Z,91.8
2017-08-16T08:26:32.482Z,91.99
2017-08-16T08:27:13.059Z,91.8
2017-08-16T08:27:53.641Z,91.6
2017-08-16T08:28:34.218Z,91.7
2017-08-16T08:29:14.816Z,92.18
2017-08-16T08:29:55.497Z,92.08
2017-08-16T08:30:36.107Z,92.28
2017-08-16T08:31:16.684Z,92.18
2017-08-16T08:31:57.282Z,92.28
2017-08-16T08:32:37.850Z,92.08
2017-08-16T08:33:18.451Z,92.38
2017-08-16T08:33:59.036Z,92.38
2017-08-16T08:34:39.618Z,92.66
2017-08-16T08:35:20.182Z,92.57
2017-08-16T08:36:00.759Z,92.47
2017-08-16T08:36:41.324Z,92.47
2017-08-16T08:37:21.913Z,92.47
2017-08-16T08:38:02.502Z,92.47
2017-08-16T08:38:43.093Z,92.08
2017-08-16T08:39:23.712Z,92.47
2017-08-16T08:40:04.299Z,92.47
2017-08-16T08:40:44.867Z,92.28
2017-08-16T08:41:25.443Z,92.66
2017-08-16T08:42:06.024Z,92.66
2017-08-16T08:42:46.586Z,92.85
2017-08-16T08:43:27.174Z,92.38
2017-08-16T08:44:07.743Z,92.85
2017-08-16T08:44:48.326Z,92.38